Time;durP1;ratioP1;P1;durP2;ratioP2;P2;SDS_P1;SDS_P2;PMS_P1;PMS_P2;Temp;Humidity;BMP_temperature;BMP_pressure;BME280_temperature;BME280_humidity;BME280_pressure;Samples;Min_cycle;Max_cycle;Signal;HPM_P1;HPM_P2
2022/06/14 00:03:09;;;;;;;1.75;1.17;;;;;;;-148.56;100.00;61375.16;5035321;28;20039;-31
2022/06/14 00:05:35;;;;;;;2.17;1.15;;;;;;;-148.56;100.00;61375.16;5034897;28;20032;-34
2022/06/14 00:08:00;;;;;;;1.77;1.13;;;;;;;-148.56;100.00;61375.16;5027056;28;20048;-27
2022/06/14 00:10:26;;;;;;;2.60;1.40;;;;;;;-148.56;100.00;61375.16;5024816;28;20197;-34
2022/06/14 00:12:52;;;;;;;1.80;1.23;;;;;;;-148.56;100.00;61375.16;5043665;28;21082;-30
2022/06/14 00:15:17;;;;;;;4.63;1.13;;;;;;;-148.56;100.00;61375.16;5021185;28;20025;-34
2022/06/14 00:17:43;;;;;;;3.97;1.33;;;;;;;-148.56;100.00;61375.16;5027548;28;20052;-33
2022/06/14 00:20:09;;;;;;;1.88;1.25;;;;;;;-148.56;100.00;61375.16;5023041;28;20020;-33
2022/06/14 00:22:35;;;;;;;1.50;1.10;;;;;;;-148.56;100.00;61375.16;5026411;28;20040;-32
2022/06/14 00:25:00;;;;;;;1.38;1.20;;;;;;;-148.56;100.00;61375.16;5005968;28;20090;-32
2022/06/14 00:27:25;;;;;;;2.40;1.35;;;;;;;-148.56;100.00;61375.16;5025104;28;20070;-30
2022/06/14 00:29:51;;;;;;;4.35;1.40;;;;;;;-148.56;100.00;61375.16;5023932;28;20032;-32
2022/06/14 00:32:16;;;;;;;2.42;1.23;;;;;;;-148.56;100.00;61375.16;5024236;28;20039;-33
2022/06/14 00:34:42;;;;;;;4.35;1.20;;;;;;;-148.56;100.00;61375.16;5021131;28;20032;-29
2022/06/14 00:37:10;;;;;;;2.05;1.10;;;;;;;-148.56;100.00;61375.16;5028385;28;20810;-29
2022/06/14 00:39:36;;;;;;;1.85;1.25;;;;;;;-148.56;100.00;61375.16;5022332;28;20047;-28
2022/06/14 00:42:01;;;;;;;2.28;1.13;;;;;;;-148.56;100.00;61375.16;5031141;28;20037;-30
2022/06/14 00:44:28;;;;;;;2.33;1.20;;;;;;;-148.56;100.00;61375.16;5032092;28;20419;-32
2022/06/14 00:47:19;;;;;;;2.03;1.20;;;;;;;-148.56;100.00;61375.16;5024495;28;20024;-33
2022/06/14 00:49:49;;;;;;;3.60;1.30;;;;;;;-148.56;100.00;61375.16;5024470;28;20045;-30
2022/06/14 00:52:28;;;;;;;1.92;1.38;;;;;;;-148.56;100.00;61375.16;5028125;28;20053;-31
2022/06/14 00:54:58;;;;;;;1.45;1.10;;;;;;;-148.56;100.00;61375.16;5030296;28;20592;-31
2022/06/14 00:57:25;;;;;;;1.40;1.13;;;;;;;-148.56;100.00;61375.16;5033458;28;20039;-28
2022/06/14 01:00:12;;;;;;;1.90;1.20;;;;;;;-148.56;100.00;61375.16;5027785;28;20032;-25
2022/06/14 01:02:50;;;;;;;2.05;1.17;;;;;;;-148.56;100.00;61375.16;5033009;28;20053;-30
2022/06/14 01:05:28;;;;;;;2.08;1.20;;;;;;;-148.56;100.00;61375.16;5043187;28;20044;-32
2022/06/14 01:07:56;;;;;;;1.65;1.17;;;;;;;-148.56;100.00;61375.16;5045601;28;20021;-29
2022/06/14 01:10:28;;;;;;;1.85;1.23;;;;;;;-148.56;100.00;61375.16;5020449;28;20756;-32
2022/06/14 01:12:56;;;;;;;1.77;1.10;;;;;;;-148.56;100.00;61375.16;5036680;28;20033;-31
2022/06/14 01:15:23;;;;;;;1.55;1.20;;;;;;;-148.56;100.00;61375.16;5040732;28;20054;-30
2022/06/14 01:17:52;;;;;;;2.28;1.25;;;;;;;-148.56;100.00;61375.16;5042404;28;20075;-29
2022/06/14 01:20:19;;;;;;;2.80;1.30;;;;;;;-148.56;100.00;61375.16;5042326;28;20032;-29
2022/06/14 01:22:45;;;;;;;1.98;1.10;;;;;;;-148.56;100.00;61375.16;5044100;28;20052;-31
2022/06/14 01:25:10;;;;;;;3.35;1.23;;;;;;;-148.56;100.00;61375.16;5039355;28;20043;-30
2022/06/14 01:27:37;;;;;;;2.88;1.25;;;;;;;-148.56;100.00;61375.16;5045978;28;20025;-31
2022/06/14 01:30:27;;;;;;;1.92;1.00;;;;;;;-148.56;100.00;61375.16;5043237;28;20189;-28
2022/06/14 01:32:57;;;;;;;1.88;1.25;;;;;;;-148.56;100.00;61375.16;5039567;28;20074;-31
2022/06/14 01:35:29;;;;;;;2.45;1.10;;;;;;;-148.56;100.00;61375.16;5036483;28;20089;-32
2022/06/14 01:37:56;;;;;;;1.13;0.88;;;;;;;-148.56;100.00;61375.16;5037462;28;20035;-34
2022/06/14 01:40:40;;;;;;;1.50;1.00;;;;;;;-148.56;100.00;61375.16;5038134;28;20041;-30
2022/06/14 01:43:09;;;;;;;2.78;1.08;;;;;;;-148.56;100.00;61375.16;5040771;28;20040;-30
2022/06/14 01:45:57;;;;;;;2.38;1.05;;;;;;;-148.56;100.00;61375.16;5040268;28;20032;-29
2022/06/14 01:48:29;;;;;;;2.30;1.23;;;;;;;-148.56;100.00;61375.16;5053019;28;21097;-29
2022/06/14 01:54:17;;;;;;;1.77;1.20;;;;;;;-148.56;100.00;61375.16;5041771;28;20018;-32
2022/06/14 01:56:49;;;;;;;1.30;0.90;;;;;;;-148.56;100.00;61375.16;5042614;28;20036;-31
2022/06/14 01:59:22;;;;;;;3.20;1.10;;;;;;;-148.56;100.00;61375.16;5038714;28;20910;-29
2022/06/14 02:01:58;;;;;;;1.30;1.08;;;;;;;-148.56;100.00;61375.16;5040197;28;20793;-30
2022/06/14 02:04:45;;;;;;;2.05;0.90;;;;;;;-148.56;100.00;61375.16;5040085;28;20032;-28
2022/06/14 02:07:33;;;;;;;1.73;0.93;;;;;;;-148.56;100.00;61375.16;5041745;28;20125;-31
2022/06/14 02:10:04;;;;;;;2.67;1.15;;;;;;;-148.56;100.00;61375.16;5002693;28;20350;-27
2022/06/14 02:12:47;;;;;;;1.60;1.17;;;;;;;-148.56;100.00;61375.16;5038395;28;20056;-30
2022/06/14 02:15:27;;;;;;;2.72;1.35;;;;;;;-148.56;100.00;61375.16;5041017;28;20285;-32
2022/06/14 02:18:15;;;;;;;1.63;1.20;;;;;;;-148.56;100.00;61375.16;5022842;28;20043;-29
2022/06/14 02:20:46;;;;;;;1.30;1.00;;;;;;;-148.56;100.00;61375.16;5038787;28;20571;-29
2022/06/14 02:23:12;;;;;;;1.73;1.20;;;;;;;-148.56;100.00;61375.16;5035953;28;20776;-30
2022/06/14 02:26:18;;;;;;;1.55;0.82;;;;;;;-148.56;100.00;61375.16;5038678;28;20044;-30
2022/06/14 02:28:47;;;;;;;3.03;1.33;;;;;;;-148.56;100.00;61375.16;5042623;28;20051;-29
2022/06/14 02:31:24;;;;;;;1.45;0.90;;;;;;;-148.56;100.00;61375.16;5044702;28;20028;-31
2022/06/14 02:34:05;;;;;;;1.17;1.08;;;;;;;-148.56;100.00;61375.16;5043825;28;20028;-30
2022/06/14 02:37:01;;;;;;;1.90;0.82;;;;;;;-148.56;100.00;61375.16;5045059;28;20025;-29
2022/06/14 02:39:31;;;;;;;0.93;0.80;;;;;;;-148.56;100.00;61375.16;5027642;28;20032;-28
2022/06/14 02:42:08;;;;;;;1.35;1.05;;;;;;;-148.56;100.00;61375.16;5041020;28;20025;-30
2022/06/14 02:44:41;;;;;;;2.78;1.00;;;;;;;-148.56;100.00;61375.16;5031938;28;20052;-30
2022/06/14 02:47:12;;;;;;;1.23;0.90;;;;;;;-148.56;100.00;61375.16;5031383;28;20024;-29
2022/06/14 02:49:43;;;;;;;1.27;0.93;;;;;;;-148.56;100.00;61375.16;5041276;28;20028;-30
2022/06/14 02:52:35;;;;;;;1.35;0.80;;;;;;;-148.56;100.00;61375.16;5042061;28;20024;-30
2022/06/14 02:55:07;;;;;;;2.25;0.82;;;;;;;-148.56;100.00;61375.16;5046109;28;20059;-30
2022/06/14 02:57:43;;;;;;;2.45;1.00;;;;;;;-148.56;100.00;61375.16;5046886;28;20498;-30
2022/06/14 03:00:26;;;;;;;1.58;0.90;;;;;;;-148.56;100.00;61375.16;5042133;28;20093;-29
2022/06/14 03:03:29;;;;;;;1.20;0.80;;;;;;;-148.56;100.00;61375.16;5044802;28;20559;-31
2022/06/14 03:06:05;;;;;;;1.60;1.13;;;;;;;-148.56;100.00;61375.16;5012491;28;20697;-30
2022/06/14 03:08:47;;;;;;;1.67;1.05;;;;;;;-148.56;100.00;61375.16;5042151;28;20040;-29
2022/06/14 03:11:31;;;;;;;;;;;;;;;-148.56;100.00;61375.16;5042316;28;20029;-33
2022/06/14 03:14:06;;;;;;;0.73;0.70;;;;;;;-148.56;100.00;61375.16;5042485;28;19924;-29
2022/06/14 03:16:47;;;;;;;2.75;0.80;;;;;;;-148.56;100.00;61375.16;5048938;28;20606;-29
2022/06/14 03:19:18;;;;;;;2.03;1.13;;;;;;;-148.56;100.00;61375.16;5037832;28;20091;-30
2022/06/14 03:22:18;;;;;;;1.13;0.88;;;;;;;-148.56;100.00;61375.16;5052860;28;20441;-29
2022/06/14 03:24:59;;;;;;;1.70;1.20;;;;;;;-148.56;100.00;61375.16;5036995;28;20098;-30
2022/06/14 03:27:33;;;;;;;4.07;1.00;;;;;;;-148.56;100.00;61375.16;5046703;28;20393;-29
2022/06/14 03:30:17;;;;;;;1.23;0.90;;;;;;;-148.56;100.00;61375.16;5052452;28;20025;-33
2022/06/14 03:32:45;;;;;;;1.67;1.00;;;;;;;-148.56;100.00;61375.16;5054606;28;20025;-29
2022/06/14 03:35:30;;;;;;;1.15;0.82;;;;;;;-148.56;100.00;61375.16;5053615;28;20067;-29
2022/06/14 03:37:56;;;;;;;1.75;0.95;;;;;;;-148.56;100.00;61375.16;5050179;28;20040;-29
2022/06/14 03:40:21;;;;;;;3.03;0.95;;;;;;;-148.56;100.00;61375.16;5048863;28;20102;-28
2022/06/14 03:42:47;;;;;;;2.03;1.08;;;;;;;-148.56;100.00;61375.16;5052052;28;20602;-28
2022/06/14 03:45:13;;;;;;;1.77;1.05;;;;;;;-148.56;100.00;61375.16;5055199;28;20033;-33
2022/06/14 03:47:39;;;;;;;2.88;1.00;;;;;;;-148.56;100.00;61375.16;5062778;28;20032;-30
2022/06/14 03:50:10;;;;;;;2.45;0.90;;;;;;;-148.56;100.00;61375.16;5045252;28;20520;-32
2022/06/14 03:52:56;;;;;;;7.63;0.98;;;;;;;-148.56;100.00;61375.16;5030185;28;20907;-30
2022/06/14 03:55:49;;;;;;;1.80;1.00;;;;;;;-148.56;100.00;61375.16;5041061;28;20048;-33
2022/06/14 03:58:20;;;;;;;1.38;1.00;;;;;;;-148.56;100.00;61375.16;5042123;28;20109;-30
2022/06/14 04:00:56;;;;;;;1.40;1.10;;;;;;;-148.56;100.00;61375.16;5046643;28;20803;-30
2022/06/14 04:03:45;;;;;;;1.55;0.88;;;;;;;-148.56;100.00;61375.16;5046707;28;20628;-29
2022/06/14 04:06:18;;;;;;;0.93;0.80;;;;;;;-148.56;100.00;61375.16;5041047;28;20078;-33
2022/06/14 04:09:03;;;;;;;3.13;0.90;;;;;;;-148.56;100.00;61375.16;5025081;28;20047;-32
2022/06/14 04:11:56;;;;;;;1.45;1.00;;;;;;;-148.56;100.00;61375.16;5043306;28;20033;-32
2022/06/14 04:14:34;;;;;;;1.33;0.95;;;;;;;-148.56;100.00;61375.16;5038554;28;20055;-31
2022/06/14 04:17:19;;;;;;;0.95;0.80;;;;;;;-148.56;100.00;61375.16;5020644;28;20399;-35
2022/06/14 04:19:56;;;;;;;1.60;0.98;;;;;;;-148.56;100.00;61375.16;5039843;28;20067;-35
2022/06/14 04:22:34;;;;;;;1.45;1.10;;;;;;;-148.56;100.00;61375.16;5043044;28;20024;-28
2022/06/14 04:25:18;;;;;;;0.82;0.63;;;;;;;-148.56;100.00;61375.16;5038591;28;20032;-30
2022/06/14 04:27:53;;;;;;;0.93;0.80;;;;;;;-148.56;100.00;61375.16;5046059;28;20655;-29
2022/06/14 04:30:24;;;;;;;0.80;0.70;;;;;;;-148.56;100.00;61375.16;5044711;28;20086;-30
2022/06/14 04:32:56;;;;;;;1.98;0.88;;;;;;;-148.56;100.00;61375.16;5042837;28;20043;-29
2022/06/14 04:35:47;;;;;;;1.10;0.88;;;;;;;-148.56;100.00;61375.16;5044545;28;20042;-35
2022/06/14 04:38:20;;;;;;;1.30;0.77;;;;;;;-148.56;100.00;61375.16;5041569;28;20036;-32
2022/06/14 04:40:50;;;;;;;2.60;1.15;;;;;;;-148.56;100.00;61375.16;5028322;28;20944;-31
2022/06/14 04:43:18;;;;;;;1.38;0.90;;;;;;;-148.56;100.00;61375.16;5041683;28;20037;-30
2022/06/14 04:45:51;;;;;;;0.77;0.77;;;;;;;-148.56;100.00;61375.16;5026202;28;20536;-33
2022/06/14 04:48:19;;;;;;;1.30;0.80;;;;;;;-148.56;100.00;61375.16;5027948;28;20036;-30
2022/06/14 04:50:47;;;;;;;1.75;0.90;;;;;;;-148.56;100.00;61375.16;5045898;28;20033;-29
2022/06/14 04:53:19;;;;;;;1.42;1.00;;;;;;;-148.56;100.00;61375.16;5054144;28;20020;-30
2022/06/14 04:56:21;;;;;;;1.65;0.80;;;;;;;-148.56;100.00;61375.16;5046317;28;20092;-30
2022/06/14 04:58:49;;;;;;;;;;;;;;;-148.56;100.00;61375.16;5049537;28;20077;-30
2022/06/14 05:01:19;;;;;;;1.05;0.80;;;;;;;-148.56;100.00;61375.16;5044433;28;21632;-29
2022/06/14 05:03:57;;;;;;;2.40;0.88;;;;;;;-148.56;100.00;61375.16;5027190;28;20047;-29
2022/06/14 05:06:28;;;;;;;0.80;0.73;;;;;;;-148.56;100.00;61375.16;5046378;28;20659;-31
2022/06/14 05:08:56;;;;;;;1.17;0.87;;;;;;;-148.56;100.00;61375.16;5026404;28;20033;-29
2022/06/14 05:11:30;;;;;;;1.73;0.93;;;;;;;-148.56;100.00;61375.16;5040113;28;20290;-30
2022/06/14 05:14:01;;;;;;;2.95;0.90;;;;;;;-148.56;100.00;61375.16;5022162;28;20033;-31
2022/06/14 05:16:38;;;;;;;1.40;0.90;;;;;;;-148.56;100.00;61375.16;5027538;28;20024;-30
2022/06/14 05:19:13;;;;;;;1.13;0.90;;;;;;;-148.56;100.00;61375.16;5042182;28;20028;-30
2022/06/14 05:21:44;;;;;;;0.80;0.60;;;;;;;-148.56;100.00;61375.16;5041184;28;20029;-31
2022/06/14 05:24:09;;;;;;;1.17;0.80;;;;;;;-148.56;100.00;61375.16;5047483;28;20037;-30
2022/06/14 05:27:10;;;;;;;1.48;0.75;;;;;;;-148.56;100.00;61375.16;5035863;28;20044;-30
2022/06/14 05:29:42;;;;;;;0.87;0.70;;;;;;;-148.56;100.00;61375.16;5039102;28;20040;-32
2022/06/14 05:32:27;;;;;;;1.30;0.70;;;;;;;-148.56;100.00;61375.16;5041412;28;20028;-30
2022/06/14 05:35:36;;;;;;;1.00;0.70;;;;;;;-148.56;100.00;61375.16;5026305;28;20094;-31
2022/06/14 05:38:16;;;;;;;0.90;0.63;;;;;;;-148.56;100.00;61375.16;5007919;28;20029;-29
2022/06/14 05:40:46;;;;;;;1.75;0.70;;;;;;;-148.56;100.00;61375.16;5009790;28;21293;-30
2022/06/14 05:43:15;;;;;;;3.20;0.90;;;;;;;-148.56;100.00;61375.16;4999216;28;20074;-29
2022/06/14 05:45:44;;;;;;;1.83;0.80;;;;;;;-148.56;100.00;61375.16;5041253;28;21006;-29
2022/06/14 05:48:16;;;;;;;1.35;0.80;;;;;;;-148.56;100.00;61375.16;5043503;28;20587;-29
2022/06/14 05:50:42;;;;;;;;;;;;;;;-148.56;100.00;61375.16;5044948;28;20028;-32
2022/06/14 05:53:28;;;;;;;1.63;0.60;;;;;;;-148.56;100.00;61375.16;5041081;28;19967;-30
2022/06/14 05:56:22;;;;;;;2.50;0.80;;;;;;;-148.56;100.00;61375.16;5043429;28;20098;-29
2022/06/14 05:58:55;;;;;;;1.95;0.75;;;;;;;-148.56;100.00;61375.16;5041624;28;20036;-32
2022/06/14 06:01:31;;;;;;;1.45;0.70;;;;;;;-148.56;100.00;61375.16;5026956;28;20806;-30
2022/06/14 06:04:05;;;;;;;1.40;0.82;;;;;;;-148.56;100.00;61375.16;5037614;28;20044;-29
2022/06/14 06:06:32;;;;;;;6.63;2.60;;;;;;;-148.56;100.00;61375.16;5036780;28;20447;-30
2022/06/14 06:09:04;;;;;;;9.30;2.78;;;;;;;-148.56;100.00;61375.16;5041977;28;20043;-31
2022/06/14 06:11:36;;;;;;;10.07;3.22;;;;;;;-148.56;100.00;61375.16;5027242;28;20052;-30
2022/06/14 06:14:11;;;;;;;8.35;3.65;;;;;;;-148.56;100.00;61375.16;5039800;28;20107;-29
2022/06/14 06:19:25;;;;;;;15.43;3.80;;;;;;;-148.56;100.00;61375.16;5040748;28;20032;-30
2022/06/14 06:21:57;;;;;;;9.80;3.50;;;;;;;-148.56;100.00;61375.16;5046681;28;20490;-29
2022/06/14 06:24:27;;;;;;;9.13;3.78;;;;;;;-148.56;100.00;61375.16;5024833;28;20061;-30
2022/06/14 06:26:56;;;;;;;9.43;3.67;;;;;;;-148.56;100.00;61375.16;5037840;28;20062;-30
2022/06/14 06:29:28;;;;;;;12.32;3.70;;;;;;;-148.56;100.00;61375.16;5038788;28;20169;-28
2022/06/14 06:31:54;;;;;;;9.00;4.38;;;;;;;-148.56;100.00;61375.16;5039550;28;20103;-30
2022/06/14 06:34:19;;;;;;;7.97;3.92;;;;;;;-148.56;100.00;61375.16;5043211;28;20433;-29
2022/06/14 06:37:11;;;;;;;20.52;4.80;;;;;;;-148.56;100.00;61375.16;5036971;28;20037;-31
2022/06/14 06:39:56;;;;;;;11.68;4.50;;;;;;;-148.56;100.00;61375.16;5024282;28;20037;-29
2022/06/14 06:42:25;;;;;;;12.98;4.40;;;;;;;-148.56;100.00;61375.16;5041664;28;20032;-30
2022/06/14 06:44:59;;;;;;;14.68;5.18;;;;;;;-148.56;100.00;61375.16;5040875;28;20028;-32
2022/06/14 06:47:40;;;;;;;14.10;4.80;;;;;;;-148.56;100.00;61375.16;5039126;28;20025;-30
2022/06/14 06:50:17;;;;;;;17.15;4.55;;;;;;;-148.56;100.00;61375.16;5024810;28;20024;-30
2022/06/14 06:52:43;;;;;;;10.85;4.55;;;;;;;-148.56;100.00;61375.16;5037805;28;20036;-29
2022/06/14 06:55:11;;;;;;;10.52;3.90;;;;;;;-148.56;100.00;61375.16;5035871;28;20029;-28
2022/06/14 06:57:37;;;;;;;14.23;4.25;;;;;;;-148.56;100.00;61375.16;5025893;28;20054;-30
2022/06/14 07:00:04;;;;;;;8.82;4.03;;;;;;;-148.56;100.00;61375.16;5042098;28;20057;-30
2022/06/14 07:02:50;;;;;;;12.52;4.03;;;;;;;-148.56;100.00;61375.16;5034981;28;20090;-35
2022/06/14 07:05:17;;;;;;;9.23;4.53;;;;;;;-148.56;100.00;61375.16;5038657;28;20029;-30
2022/06/14 07:07:55;;;;;;;13.98;4.57;;;;;;;-148.56;100.00;61375.16;5039240;28;20033;-30
2022/06/14 07:10:40;;;;;;;12.05;4.03;;;;;;;-148.56;100.00;61375.16;5040136;28;20036;-30
2022/06/14 07:13:32;;;;;;;12.93;4.38;;;;;;;-148.56;100.00;61375.16;5039997;28;20517;-31
2022/06/14 07:16:09;;;;;;;14.10;4.45;;;;;;;-148.56;100.00;61375.16;5034985;28;21198;-30
2022/06/14 07:19:00;;;;;;;15.63;5.45;;;;;;;-148.56;100.00;61375.16;5025359;28;20033;-32
2022/06/14 07:21:31;;;;;;;20.70;5.45;;;;;;;-148.56;100.00;61375.16;5039759;28;20043;-28
2022/06/14 07:24:17;;;;;;;12.40;4.95;;;;;;;-148.56;100.00;61375.16;5053053;28;20078;-29
2022/06/14 07:27:11;;;;;;;14.55;4.80;;;;;;;-148.56;100.00;61375.16;5048049;28;20089;-29
2022/06/14 07:29:46;;;;;;;13.18;4.65;;;;;;;-148.56;100.00;61375.16;5039079;28;20986;-30
2022/06/14 07:32:44;;;;;;;12.82;4.50;;;;;;;-148.56;100.00;61375.16;5039981;28;20055;-27
2022/06/14 07:35:10;;;;;;;11.55;4.25;;;;;;;-148.56;100.00;61375.16;5037608;28;20279;-29
2022/06/14 07:37:47;;;;;;;9.35;4.22;;;;;;;-148.56;100.00;61375.16;5041445;28;21295;-31
2022/06/14 07:40:34;;;;;;;7.88;3.67;;;;;;;-148.56;100.00;61375.16;5023768;28;20029;-28
2022/06/14 07:43:08;;;;;;;10.90;4.07;;;;;;;-148.56;100.00;61375.16;5026103;28;20077;-29
2022/06/14 07:45:35;;;;;;;8.73;3.70;;;;;;;-148.56;100.00;61375.16;5040923;28;20085;-29
2022/06/14 07:48:05;;;;;;;9.13;3.75;;;;;;;-148.56;100.00;61375.16;5044827;28;20021;-29
2022/06/14 07:50:38;;;;;;;10.52;3.53;;;;;;;-148.56;100.00;61375.16;5050839;28;20032;-28
2022/06/14 07:53:10;;;;;;;8.23;3.50;;;;;;;-148.56;100.00;61375.16;5029611;28;20583;-28
2022/06/14 07:55:38;;;;;;;8.38;3.35;;;;;;;-148.56;100.00;61375.16;5036772;28;20055;-28
2022/06/14 07:58:06;;;;;;;11.23;3.65;;;;;;;-148.56;100.00;61375.16;5049331;28;20206;-28
2022/06/14 08:03:51;;;;;;;8.85;3.58;;;;;;;-148.56;100.00;61375.16;5050237;28;21574;-28
2022/06/14 08:06:28;;;;;;;12.02;3.58;;;;;;;-148.56;100.00;61375.16;5052780;28;20032;-29
2022/06/14 08:08:58;;;;;;;9.15;3.72;;;;;;;-148.56;100.00;61375.16;5035603;28;20033;-28
2022/06/14 08:11:28;;;;;;;9.50;3.60;;;;;;;-148.56;100.00;61375.16;5049220;28;20021;-28
2022/06/14 08:14:00;;;;;;;9.18;3.20;;;;;;;-148.56;100.00;61375.16;5048931;28;20032;-27
2022/06/14 08:16:25;;;;;;;10.50;3.42;;;;;;;-148.56;100.00;61375.16;5048528;28;20205;-27
2022/06/14 08:18:52;;;;;;;17.27;5.05;;;;;;;-148.56;100.00;61375.16;5046313;28;20737;-29
2022/06/14 08:21:25;;;;;;;9.35;3.90;;;;;;;-148.56;100.00;61375.16;5041918;28;20039;-29
2022/06/14 08:23:55;;;;;;;6.68;3.28;;;;;;;-148.56;100.00;61375.16;5044403;28;20042;-30
2022/06/14 08:26:42;;;;;;;10.63;3.55;;;;;;;-148.56;100.00;61375.16;5039461;28;20033;-28
2022/06/14 08:29:20;;;;;;;11.95;4.00;;;;;;;-148.56;100.00;61375.16;5040729;28;20094;-28
2022/06/14 08:31:50;;;;;;;12.43;4.00;;;;;;;-148.56;100.00;61375.16;5046827;28;20077;-27
2022/06/14 08:34:32;;;;;;;9.05;3.65;;;;;;;-148.56;100.00;61375.16;5042403;28;20024;-28
2022/06/14 08:37:10;;;;;;;18.20;5.10;;;;;;;-148.56;100.00;61375.16;5023140;28;20588;-27
2022/06/14 08:39:48;;;;;;;24.05;5.78;;;;;;;-148.56;100.00;61375.16;5057786;28;20032;-30
2022/06/14 08:42:32;;;;;;;18.95;4.53;;;;;;;-148.56;100.00;61375.16;5038306;28;22740;-30
2022/06/14 08:45:07;;;;;;;14.98;4.38;;;;;;;-148.56;100.00;61375.16;5039240;28;20029;-30
2022/06/14 08:47:52;;;;;;;14.90;4.32;;;;;;;-148.56;100.00;61375.16;5042975;28;20037;-29
2022/06/14 08:50:36;;;;;;;17.67;4.40;;;;;;;-148.56;100.00;61375.16;5040315;28;20031;-30
2022/06/14 08:53:27;;;;;;;14.52;3.90;;;;;;;-148.56;100.00;61375.16;5044221;28;20032;-30
2022/06/14 08:56:23;;;;;;;9.77;3.45;;;;;;;-148.56;100.00;61375.16;5045888;28;20908;-29
2022/06/14 08:58:58;;;;;;;8.70;3.70;;;;;;;-148.56;100.00;61375.16;5043078;28;20090;-30
2022/06/14 09:01:44;;;;;;;15.63;3.88;;;;;;;-148.56;100.00;61375.16;5043344;28;20399;-29
2022/06/14 09:04:54;;;;;;;10.52;3.47;;;;;;;-148.56;100.00;61375.16;5044297;28;20024;-29
2022/06/14 09:07:38;;;;;;;10.13;3.88;;;;;;;-148.56;100.00;61375.16;5040153;28;20809;-30
2022/06/14 09:10:15;;;;;;;12.00;3.67;;;;;;;-148.56;100.00;61375.16;5041817;28;20067;-29
2022/06/14 09:12:52;;;;;;;10.38;3.40;;;;;;;-148.56;100.00;61375.16;5039445;28;20024;-29
2022/06/14 09:15:21;;;;;;;12.52;3.33;;;;;;;-148.56;100.00;61375.16;5042462;28;20036;-30
2022/06/14 09:17:55;;;;;;;11.65;4.15;;;;;;;-148.56;100.00;61375.16;5039004;28;20504;-29
2022/06/14 09:20:49;;;;;;;7.45;3.10;;;;;;;-148.56;100.00;61375.16;5036882;28;20043;-30
2022/06/14 09:23:20;;;;;;;9.75;3.63;;;;;;;-148.56;100.00;61375.16;5043134;28;21997;-30
2022/06/14 09:26:05;;;;;;;7.60;3.35;;;;;;;-148.56;100.00;61375.16;5040311;28;21093;-30
2022/06/14 09:28:48;;;;;;;12.02;3.22;;;;;;;-148.56;100.00;61375.16;5039382;28;20021;-28
2022/06/14 09:31:23;;;;;;;8.93;3.47;;;;;;;-148.56;100.00;61375.16;5043043;28;20029;-30
2022/06/14 09:34:30;;;;;;;11.60;3.35;;;;;;;-148.56;100.00;61375.16;5041958;28;20041;-29
2022/06/14 09:37:33;;;;;;;9.43;3.50;;;;;;;-148.56;100.00;61375.16;5043455;28;20127;-29
2022/06/14 09:40:28;;;;;;;7.82;3.13;;;;;;;-148.56;100.00;61375.16;5044282;28;20036;-29
2022/06/14 09:43:22;;;;;;;8.63;3.40;;;;;;;-148.56;100.00;61375.16;5040041;28;20025;-29
2022/06/14 09:45:56;;;;;;;10.32;3.75;;;;;;;-148.56;100.00;61375.16;5038579;28;20102;-30
2022/06/14 09:48:27;;;;;;;8.55;3.30;;;;;;;-148.56;100.00;61375.16;5042070;28;20032;-28
2022/06/14 09:51:11;;;;;;;11.40;3.88;;;;;;;-148.56;100.00;61375.16;5041915;28;20615;-33
2022/06/14 09:53:37;;;;;;;10.52;4.00;;;;;;;-148.56;100.00;61375.16;5043428;28;20024;-28
2022/06/14 09:56:11;;;;;;;10.32;4.00;;;;;;;-148.56;100.00;61375.16;5043176;28;20044;-29
2022/06/14 09:59:08;;;;;;;12.50;4.50;;;;;;;-148.56;100.00;61375.16;5041999;28;20116;-28
2022/06/14 10:01:43;;;;;;;10.27;3.80;;;;;;;-148.56;100.00;61375.16;5042452;28;20519;-29
2022/06/14 10:05:05;;;;;;;9.50;3.85;;;;;;;-148.56;100.00;61375.16;5043183;28;20032;-29
2022/06/14 10:07:37;;;;;;;10.23;3.55;;;;;;;-148.56;100.00;61375.16;5039018;28;20136;-36
2022/06/14 10:10:11;;;;;;;7.45;3.47;;;;;;;-148.56;100.00;61375.16;5037312;28;20033;-31
2022/06/14 10:13:15;;;;;;;11.65;4.05;;;;;;;-148.56;100.00;61375.16;5041056;28;20036;-31
2022/06/14 10:15:43;;;;;;;13.25;4.85;;;;;;;-148.56;100.00;61375.16;5013109;28;20044;-29
2022/06/14 10:18:09;;;;;;;8.57;3.95;;;;;;;-148.56;100.00;61375.16;5039470;28;20032;-29
2022/06/14 10:20:50;;;;;;;14.75;4.32;;;;;;;-148.56;100.00;61375.16;5037967;28;20047;-29
2022/06/14 10:23:37;;;;;;;12.90;4.47;;;;;;;-148.56;100.00;61375.16;5038880;28;20028;-30
2022/06/14 10:29:30;;;;;;;9.27;4.05;;;;;;;-148.56;100.00;61375.16;5041779;28;20039;-33
2022/06/14 10:32:23;;;;;;;9.98;4.13;;;;;;;-148.56;100.00;61375.16;5044335;28;20037;-30
2022/06/14 10:35:06;;;;;;;11.05;4.38;;;;;;;-148.56;100.00;61375.16;5044900;28;20025;-33
2022/06/14 10:37:34;;;;;;;9.82;4.15;;;;;;;-148.56;100.00;61375.16;5042738;28;20045;-30
2022/06/14 10:40:05;;;;;;;8.50;3.90;;;;;;;-148.56;100.00;61375.16;5034560;28;20035;-30
2022/06/14 10:42:49;;;;;;;10.95;4.00;;;;;;;-148.56;100.00;61375.16;5039338;28;20031;-32
2022/06/14 10:45:17;;;;;;;10.48;4.20;;;;;;;-148.56;100.00;61375.16;5006283;28;20079;-31
2022/06/14 10:47:58;;;;;;;9.25;3.90;;;;;;;-148.56;100.00;61375.16;5017706;28;20037;-33
2022/06/14 10:50:47;;;;;;;8.15;3.88;;;;;;;-148.56;100.00;61375.16;5018226;28;20110;-29
2022/06/14 10:53:32;;;;;;;9.52;3.92;;;;;;;-148.56;100.00;61375.16;4993639;28;20094;-33
2022/06/14 10:56:35;;;;;;;8.32;3.90;;;;;;;-148.56;100.00;61375.16;5006894;28;20112;-32
2022/06/14 10:59:18;;;;;;;8.68;4.25;;;;;;;-148.56;100.00;61375.16;4973622;28;20036;-32
2022/06/14 11:02:04;;;;;;;8.75;3.80;;;;;;;-148.56;100.00;61375.16;5014129;28;20057;-32
2022/06/14 11:04:34;;;;;;;7.53;3.92;;;;;;;-148.56;100.00;61375.16;4992767;28;20148;-32
2022/06/14 11:07:07;;;;;;;9.73;3.85;;;;;;;-148.56;100.00;61375.16;4990358;28;20029;-31
2022/06/14 11:09:46;;;;;;;9.27;3.40;;;;;;;-148.56;100.00;61375.16;5013963;28;20040;-33
2022/06/14 11:12:11;;;;;;;7.10;3.50;;;;;;;-148.56;100.00;61375.16;5015579;28;20028;-33
2022/06/14 11:14:48;;;;;;;8.60;3.72;;;;;;;-148.56;100.00;61375.16;5027922;28;20039;-28
2022/06/14 11:17:28;;;;;;;6.93;3.22;;;;;;;-148.56;100.00;61375.16;5009006;28;20030;-29
2022/06/14 11:20:18;;;;;;;8.20;3.40;;;;;;;-148.56;100.00;61375.16;5030923;28;20120;-28
2022/06/14 11:22:48;;;;;;;7.00;3.28;;;;;;;-148.56;100.00;61375.16;5015790;28;20577;-30
2022/06/14 11:25:32;;;;;;;8.02;3.33;;;;;;;-148.56;100.00;61375.16;5032441;28;22687;-29
2022/06/14 11:28:16;;;;;;;6.05;3.45;;;;;;;-148.56;100.00;61375.16;5016576;28;20065;-32
2022/06/14 11:31:01;;;;;;;8.52;3.28;;;;;;;-148.56;100.00;61375.16;5025406;28;20033;-30
2022/06/14 11:33:45;;;;;;;7.22;3.45;;;;;;;-148.56;100.00;61375.16;5006265;28;20060;-31
2022/06/14 11:36:23;;;;;;;7.65;3.30;;;;;;;-148.56;100.00;61375.16;5021872;28;20018;-30
2022/06/14 11:38:49;;;;;;;7.95;3.10;;;;;;;-148.56;100.00;61375.16;5005086;28;20029;-29
2022/06/14 11:41:14;;;;;;;7.30;3.25;;;;;;;-148.56;100.00;61375.16;5025677;28;20481;-30
2022/06/14 11:43:59;;;;;;;7.32;3.53;;;;;;;-148.56;100.00;61375.16;4998334;28;20112;-31
2022/06/14 11:46:51;;;;;;;6.30;3.15;;;;;;;-148.56;100.00;61375.16;5007704;28;20044;-33
2022/06/14 11:49:33;;;;;;;6.57;3.20;;;;;;;-148.56;100.00;61375.16;5005988;28;20060;-29
2022/06/14 11:52:04;;;;;;;;;;;;;;;-148.56;100.00;61375.16;5007913;28;20036;-29
2022/06/14 11:54:44;;;;;;;7.25;3.08;;;;;;;-148.56;100.00;61375.16;5034508;28;19921;-29
2022/06/14 11:57:30;;;;;;;6.78;3.35;;;;;;;-148.56;100.00;61375.16;5003638;28;20036;-30
2022/06/14 12:00:29;;;;;;;8.93;3.55;;;;;;;-148.56;100.00;61375.16;5005055;28;20032;-28
2022/06/14 12:03:12;;;;;;;9.02;2.92;;;;;;;-148.56;100.00;61375.16;5008007;28;20041;-30
2022/06/14 12:05:58;;;;;;;6.13;3.08;;;;;;;-148.56;100.00;61375.16;5024721;28;20040;-31
2022/06/14 12:08:49;;;;;;;6.40;2.80;;;;;;;-148.56;100.00;61375.16;4986931;28;21342;-29